<?xml version="1.0"?>
<gpx xmlns="http://www.topografix.com/GPX/1/1" version="1.1" creator="afstandmeten.nl" xmlns:xsi="http://www.w3.org/2001/XMLSchema-instance" xsi:schemaLocation="http://www.topografix.com/GPX/1/1 http://www.topografix.com/GPX/1/1/gpx.xsd">
  <trk>
    <name>UM Halve Marathon excl. Wilhelminap(meting) WDN 26</name>
    <desc/>
    <trkseg>
      <trkpt lat="52.0820242" lon="5.1635345">
        <ele>0.00000</ele>
        <time>2026-05-31T00:00:00Z</time>
      </trkpt>
      <trkpt lat="52.0812772" lon="5.1636044">
        <ele>0.00000</ele>
        <time>2026-05-31T00:00:15Z</time>
      </trkpt>
      <trkpt lat="52.0811873" lon="5.1637191">
        <ele>0.00000</ele>
        <time>2026-05-31T00:00:17Z</time>
      </trkpt>
      <trkpt lat="52.0811584" lon="5.1637939">
        <ele>0.00000</ele>
        <time>2026-05-31T00:00:18Z</time>
      </trkpt>
      <trkpt lat="52.0811254" lon="5.1638048">
        <ele>0.00000</ele>
        <time>2026-05-31T00:00:18Z</time>
      </trkpt>
      <trkpt lat="52.0810449" lon="5.1637716">
        <ele>0.00000</ele>
        <time>2026-05-31T00:00:20Z</time>
      </trkpt>
      <trkpt lat="52.0800803" lon="5.1619263">
        <ele>0.00000</ele>
        <time>2026-05-31T00:00:48Z</time>
      </trkpt>
      <trkpt lat="52.0800146" lon="5.1613067">
        <ele>0.00000</ele>
        <time>2026-05-31T00:00:55Z</time>
      </trkpt>
      <trkpt lat="52.0804165" lon="5.1608116">
        <ele>0.00000</ele>
        <time>2026-05-31T00:01:05Z</time>
      </trkpt>
      <trkpt lat="52.080953" lon="5.159884">
        <ele>0.00000</ele>
        <time>2026-05-31T00:01:19Z</time>
      </trkpt>
      <trkpt lat="52.081409" lon="5.1593678">
        <ele>0.00000</ele>
        <time>2026-05-31T00:01:30Z</time>
      </trkpt>
      <trkpt lat="52.0815724" lon="5.159052">
        <ele>0.00000</ele>
        <time>2026-05-31T00:01:35Z</time>
      </trkpt>
      <trkpt lat="52.0816232" lon="5.1588117">
        <ele>0.00000</ele>
        <time>2026-05-31T00:01:37Z</time>
      </trkpt>
      <trkpt lat="52.0816891" lon="5.1577827">
        <ele>0.00000</ele>
        <time>2026-05-31T00:01:49Z</time>
      </trkpt>
      <trkpt lat="52.0825804" lon="5.1562675">
        <ele>0.00000</ele>
        <time>2026-05-31T00:02:14Z</time>
      </trkpt>
      <trkpt lat="52.0825948" lon="5.1562228">
        <ele>0.00000</ele>
        <time>2026-05-31T00:02:14Z</time>
      </trkpt>
      <trkpt lat="52.082103" lon="5.155184">
        <ele>0.00000</ele>
        <time>2026-05-31T00:02:29Z</time>
      </trkpt>
      <trkpt lat="52.0792138" lon="5.1499018">
        <ele>0.00000</ele>
        <time>2026-05-31T00:03:51Z</time>
      </trkpt>
      <trkpt lat="52.0790512" lon="5.1497054">
        <ele>0.00000</ele>
        <time>2026-05-31T00:03:55Z</time>
      </trkpt>
      <trkpt lat="52.0788846" lon="5.1496108">
        <ele>0.00000</ele>
        <time>2026-05-31T00:03:58Z</time>
      </trkpt>
      <trkpt lat="52.0787547" lon="5.1496046">
        <ele>0.00000</ele>
        <time>2026-05-31T00:04:01Z</time>
      </trkpt>
      <trkpt lat="52.0785536" lon="5.149667">
        <ele>0.00000</ele>
        <time>2026-05-31T00:04:04Z</time>
      </trkpt>
      <trkpt lat="52.0774965" lon="5.150443">
        <ele>0.00000</ele>
        <time>2026-05-31T00:04:26Z</time>
      </trkpt>
      <trkpt lat="52.0773816" lon="5.1504734">
        <ele>0.00000</ele>
        <time>2026-05-31T00:04:28Z</time>
      </trkpt>
      <trkpt lat="52.0771994" lon="5.1504738">
        <ele>0.00000</ele>
        <time>2026-05-31T00:04:32Z</time>
      </trkpt>
      <trkpt lat="52.0734599" lon="5.1485093">
        <ele>0.00000</ele>
        <time>2026-05-31T00:05:46Z</time>
      </trkpt>
      <trkpt lat="52.072679" lon="5.148214">
        <ele>0.00000</ele>
        <time>2026-05-31T00:06:01Z</time>
      </trkpt>
      <trkpt lat="52.0725902" lon="5.1481425">
        <ele>0.00000</ele>
        <time>2026-05-31T00:06:03Z</time>
      </trkpt>
      <trkpt lat="52.0724913" lon="5.1481906">
        <ele>0.00000</ele>
        <time>2026-05-31T00:06:05Z</time>
      </trkpt>
      <trkpt lat="52.0709718" lon="5.1495068">
        <ele>0.00000</ele>
        <time>2026-05-31T00:06:37Z</time>
      </trkpt>
      <trkpt lat="52.0692929" lon="5.151462">
        <ele>0.00000</ele>
        <time>2026-05-31T00:07:16Z</time>
      </trkpt>
      <trkpt lat="52.0692716" lon="5.1511019">
        <ele>0.00000</ele>
        <time>2026-05-31T00:07:20Z</time>
      </trkpt>
      <trkpt lat="52.0694937" lon="5.1510216">
        <ele>0.00000</ele>
        <time>2026-05-31T00:07:24Z</time>
      </trkpt>
      <trkpt lat="52.0723474" lon="5.1479491">
        <ele>0.00000</ele>
        <time>2026-05-31T00:08:29Z</time>
      </trkpt>
      <trkpt lat="52.0723311" lon="5.147859">
        <ele>0.00000</ele>
        <time>2026-05-31T00:08:30Z</time>
      </trkpt>
      <trkpt lat="52.0713629" lon="5.1472585">
        <ele>0.00000</ele>
        <time>2026-05-31T00:08:49Z</time>
      </trkpt>
      <trkpt lat="52.070834" lon="5.1468113">
        <ele>0.00000</ele>
        <time>2026-05-31T00:09:00Z</time>
      </trkpt>
      <trkpt lat="52.0703266" lon="5.1462488">
        <ele>0.00000</ele>
        <time>2026-05-31T00:09:12Z</time>
      </trkpt>
      <trkpt lat="52.0693833" lon="5.1448578">
        <ele>0.00000</ele>
        <time>2026-05-31T00:09:36Z</time>
      </trkpt>
      <trkpt lat="52.0692275" lon="5.1447356">
        <ele>0.00000</ele>
        <time>2026-05-31T00:09:39Z</time>
      </trkpt>
      <trkpt lat="52.0688356" lon="5.1445157">
        <ele>0.00000</ele>
        <time>2026-05-31T00:09:47Z</time>
      </trkpt>
      <trkpt lat="52.067352" lon="5.1443016">
        <ele>0.00000</ele>
        <time>2026-05-31T00:10:15Z</time>
      </trkpt>
      <trkpt lat="52.0667477" lon="5.1441689">
        <ele>0.00000</ele>
        <time>2026-05-31T00:10:26Z</time>
      </trkpt>
      <trkpt lat="52.0666857" lon="5.14413">
        <ele>0.00000</ele>
        <time>2026-05-31T00:10:27Z</time>
      </trkpt>
      <trkpt lat="52.0666209" lon="5.1440423">
        <ele>0.00000</ele>
        <time>2026-05-31T00:10:29Z</time>
      </trkpt>
      <trkpt lat="52.0658277" lon="5.1419247">
        <ele>0.00000</ele>
        <time>2026-05-31T00:10:58Z</time>
      </trkpt>
      <trkpt lat="52.0658293" lon="5.1418712">
        <ele>0.00000</ele>
        <time>2026-05-31T00:10:58Z</time>
      </trkpt>
      <trkpt lat="52.0672642" lon="5.1398056">
        <ele>0.00000</ele>
        <time>2026-05-31T00:11:34Z</time>
      </trkpt>
      <trkpt lat="52.0673498" lon="5.1397555">
        <ele>0.00000</ele>
        <time>2026-05-31T00:11:36Z</time>
      </trkpt>
      <trkpt lat="52.0677991" lon="5.1398882">
        <ele>0.00000</ele>
        <time>2026-05-31T00:11:45Z</time>
      </trkpt>
      <trkpt lat="52.0678733" lon="5.1398964">
        <ele>0.00000</ele>
        <time>2026-05-31T00:11:46Z</time>
      </trkpt>
      <trkpt lat="52.067943" lon="5.1398568">
        <ele>0.00000</ele>
        <time>2026-05-31T00:11:47Z</time>
      </trkpt>
      <trkpt lat="52.0689569" lon="5.1389189">
        <ele>0.00000</ele>
        <time>2026-05-31T00:12:09Z</time>
      </trkpt>
      <trkpt lat="52.069038" lon="5.1388974">
        <ele>0.00000</ele>
        <time>2026-05-31T00:12:11Z</time>
      </trkpt>
      <trkpt lat="52.0691015" lon="5.1390245">
        <ele>0.00000</ele>
        <time>2026-05-31T00:12:13Z</time>
      </trkpt>
      <trkpt lat="52.0691133" lon="5.1397294">
        <ele>0.00000</ele>
        <time>2026-05-31T00:12:21Z</time>
      </trkpt>
      <trkpt lat="52.0682439" lon="5.1406546">
        <ele>0.00000</ele>
        <time>2026-05-31T00:12:40Z</time>
      </trkpt>
      <trkpt lat="52.0682643" lon="5.1409983">
        <ele>0.00000</ele>
        <time>2026-05-31T00:12:44Z</time>
      </trkpt>
      <trkpt lat="52.0666141" lon="5.1427141">
        <ele>0.00000</ele>
        <time>2026-05-31T00:13:21Z</time>
      </trkpt>
      <trkpt lat="52.0665629" lon="5.1427871">
        <ele>0.00000</ele>
        <time>2026-05-31T00:13:23Z</time>
      </trkpt>
      <trkpt lat="52.0656779" lon="5.1436234">
        <ele>0.00000</ele>
        <time>2026-05-31T00:13:42Z</time>
      </trkpt>
      <trkpt lat="52.065651" lon="5.1436244">
        <ele>0.00000</ele>
        <time>2026-05-31T00:13:42Z</time>
      </trkpt>
      <trkpt lat="52.0656088" lon="5.1435938">
        <ele>0.00000</ele>
        <time>2026-05-31T00:13:43Z</time>
      </trkpt>
      <trkpt lat="52.0653281" lon="5.1430058">
        <ele>0.00000</ele>
        <time>2026-05-31T00:13:52Z</time>
      </trkpt>
      <trkpt lat="52.0652921" lon="5.1430057">
        <ele>0.00000</ele>
        <time>2026-05-31T00:13:52Z</time>
      </trkpt>
      <trkpt lat="52.0650349" lon="5.1432955">
        <ele>0.00000</ele>
        <time>2026-05-31T00:13:58Z</time>
      </trkpt>
      <trkpt lat="52.0649134" lon="5.1434928">
        <ele>0.00000</ele>
        <time>2026-05-31T00:14:02Z</time>
      </trkpt>
      <trkpt lat="52.0648175" lon="5.1437519">
        <ele>0.00000</ele>
        <time>2026-05-31T00:14:05Z</time>
      </trkpt>
      <trkpt lat="52.0646613" lon="5.1443754">
        <ele>0.00000</ele>
        <time>2026-05-31T00:14:13Z</time>
      </trkpt>
      <trkpt lat="52.0646157" lon="5.1444597">
        <ele>0.00000</ele>
        <time>2026-05-31T00:14:14Z</time>
      </trkpt>
      <trkpt lat="52.0642866" lon="5.1448422">
        <ele>0.00000</ele>
        <time>2026-05-31T00:14:22Z</time>
      </trkpt>
      <trkpt lat="52.0582363" lon="5.1508191">
        <ele>0.00000</ele>
        <time>2026-05-31T00:16:35Z</time>
      </trkpt>
      <trkpt lat="52.057996" lon="5.1511603">
        <ele>0.00000</ele>
        <time>2026-05-31T00:16:41Z</time>
      </trkpt>
      <trkpt lat="52.056649" lon="5.152423">
        <ele>0.00000</ele>
        <time>2026-05-31T00:17:10Z</time>
      </trkpt>
      <trkpt lat="52.0565657" lon="5.152442">
        <ele>0.00000</ele>
        <time>2026-05-31T00:17:12Z</time>
      </trkpt>
      <trkpt lat="52.0564703" lon="5.1523668">
        <ele>0.00000</ele>
        <time>2026-05-31T00:17:14Z</time>
      </trkpt>
      <trkpt lat="52.0563236" lon="5.1520705">
        <ele>0.00000</ele>
        <time>2026-05-31T00:17:18Z</time>
      </trkpt>
      <trkpt lat="52.0562708" lon="5.1520365">
        <ele>0.00000</ele>
        <time>2026-05-31T00:17:19Z</time>
      </trkpt>
      <trkpt lat="52.054083" lon="5.152418">
        <ele>0.00000</ele>
        <time>2026-05-31T00:18:00Z</time>
      </trkpt>
      <trkpt lat="52.053978" lon="5.1524076">
        <ele>0.00000</ele>
        <time>2026-05-31T00:18:02Z</time>
      </trkpt>
      <trkpt lat="52.053883" lon="5.152368">
        <ele>0.00000</ele>
        <time>2026-05-31T00:18:04Z</time>
      </trkpt>
      <trkpt lat="52.0531913" lon="5.1519258">
        <ele>0.00000</ele>
        <time>2026-05-31T00:18:18Z</time>
      </trkpt>
      <trkpt lat="52.0530571" lon="5.1503337">
        <ele>0.00000</ele>
        <time>2026-05-31T00:18:37Z</time>
      </trkpt>
      <trkpt lat="52.0530942" lon="5.149675">
        <ele>0.00000</ele>
        <time>2026-05-31T00:18:44Z</time>
      </trkpt>
      <trkpt lat="52.0532162" lon="5.1487952">
        <ele>0.00000</ele>
        <time>2026-05-31T00:18:55Z</time>
      </trkpt>
      <trkpt lat="52.053246" lon="5.1477634">
        <ele>0.00000</ele>
        <time>2026-05-31T00:19:07Z</time>
      </trkpt>
      <trkpt lat="52.053104" lon="5.1472449">
        <ele>0.00000</ele>
        <time>2026-05-31T00:19:13Z</time>
      </trkpt>
      <trkpt lat="52.0528467" lon="5.1468855">
        <ele>0.00000</ele>
        <time>2026-05-31T00:19:20Z</time>
      </trkpt>
      <trkpt lat="52.0521088" lon="5.1460371">
        <ele>0.00000</ele>
        <time>2026-05-31T00:19:37Z</time>
      </trkpt>
      <trkpt lat="52.0520834" lon="5.1459743">
        <ele>0.00000</ele>
        <time>2026-05-31T00:19:37Z</time>
      </trkpt>
      <trkpt lat="52.0520809" lon="5.1459">
        <ele>0.00000</ele>
        <time>2026-05-31T00:19:38Z</time>
      </trkpt>
      <trkpt lat="52.0523957" lon="5.1449871">
        <ele>0.00000</ele>
        <time>2026-05-31T00:19:50Z</time>
      </trkpt>
      <trkpt lat="52.0526719" lon="5.1431358">
        <ele>0.00000</ele>
        <time>2026-05-31T00:20:12Z</time>
      </trkpt>
      <trkpt lat="52.0526785" lon="5.1429373">
        <ele>0.00000</ele>
        <time>2026-05-31T00:20:15Z</time>
      </trkpt>
      <trkpt lat="52.052629" lon="5.1427281">
        <ele>0.00000</ele>
        <time>2026-05-31T00:20:17Z</time>
      </trkpt>
      <trkpt lat="52.0525532" lon="5.1425672">
        <ele>0.00000</ele>
        <time>2026-05-31T00:20:20Z</time>
      </trkpt>
      <trkpt lat="52.0517137" lon="5.1412849">
        <ele>0.00000</ele>
        <time>2026-05-31T00:20:41Z</time>
      </trkpt>
      <trkpt lat="52.0512081" lon="5.1406716">
        <ele>0.00000</ele>
        <time>2026-05-31T00:20:53Z</time>
      </trkpt>
      <trkpt lat="52.0509781" lon="5.140244">
        <ele>0.00000</ele>
        <time>2026-05-31T00:21:00Z</time>
      </trkpt>
      <trkpt lat="52.0506006" lon="5.1386497">
        <ele>0.00000</ele>
        <time>2026-05-31T00:21:20Z</time>
      </trkpt>
      <trkpt lat="52.050474" lon="5.1378035">
        <ele>0.00000</ele>
        <time>2026-05-31T00:21:30Z</time>
      </trkpt>
      <trkpt lat="52.049636" lon="5.1351449">
        <ele>0.00000</ele>
        <time>2026-05-31T00:22:04Z</time>
      </trkpt>
      <trkpt lat="52.0495556" lon="5.1344638">
        <ele>0.00000</ele>
        <time>2026-05-31T00:22:12Z</time>
      </trkpt>
      <trkpt lat="52.0495701" lon="5.1341381">
        <ele>0.00000</ele>
        <time>2026-05-31T00:22:16Z</time>
      </trkpt>
      <trkpt lat="52.0498636" lon="5.1320652">
        <ele>0.00000</ele>
        <time>2026-05-31T00:22:40Z</time>
      </trkpt>
      <trkpt lat="52.0498514" lon="5.1306689">
        <ele>0.00000</ele>
        <time>2026-05-31T00:22:57Z</time>
      </trkpt>
      <trkpt lat="52.0499305" lon="5.1299071">
        <ele>0.00000</ele>
        <time>2026-05-31T00:23:06Z</time>
      </trkpt>
      <trkpt lat="52.048139" lon="5.1292688">
        <ele>0.00000</ele>
        <time>2026-05-31T00:23:40Z</time>
      </trkpt>
      <trkpt lat="52.0481543" lon="5.129018">
        <ele>0.00000</ele>
        <time>2026-05-31T00:23:43Z</time>
      </trkpt>
      <trkpt lat="52.0499943" lon="5.1298361">
        <ele>0.00000</ele>
        <time>2026-05-31T00:24:19Z</time>
      </trkpt>
      <trkpt lat="52.0501369" lon="5.129887">
        <ele>0.00000</ele>
        <time>2026-05-31T00:24:22Z</time>
      </trkpt>
      <trkpt lat="52.050212" lon="5.1296686">
        <ele>0.00000</ele>
        <time>2026-05-31T00:24:24Z</time>
      </trkpt>
      <trkpt lat="52.050262" lon="5.1296205">
        <ele>0.00000</ele>
        <time>2026-05-31T00:24:25Z</time>
      </trkpt>
      <trkpt lat="52.050342" lon="5.1295824">
        <ele>0.00000</ele>
        <time>2026-05-31T00:24:27Z</time>
      </trkpt>
      <trkpt lat="52.0503974" lon="5.1295899">
        <ele>0.00000</ele>
        <time>2026-05-31T00:24:28Z</time>
      </trkpt>
      <trkpt lat="52.0505927" lon="5.1296971">
        <ele>0.00000</ele>
        <time>2026-05-31T00:24:32Z</time>
      </trkpt>
      <trkpt lat="52.0508252" lon="5.1299417">
        <ele>0.00000</ele>
        <time>2026-05-31T00:24:37Z</time>
      </trkpt>
      <trkpt lat="52.0510922" lon="5.1303832">
        <ele>0.00000</ele>
        <time>2026-05-31T00:24:44Z</time>
      </trkpt>
      <trkpt lat="52.052252" lon="5.1315591">
        <ele>0.00000</ele>
        <time>2026-05-31T00:25:10Z</time>
      </trkpt>
      <trkpt lat="52.0536116" lon="5.1327703">
        <ele>0.00000</ele>
        <time>2026-05-31T00:25:39Z</time>
      </trkpt>
      <trkpt lat="52.0537131" lon="5.1328218">
        <ele>0.00000</ele>
        <time>2026-05-31T00:25:41Z</time>
      </trkpt>
      <trkpt lat="52.05379" lon="5.132813">
        <ele>0.00000</ele>
        <time>2026-05-31T00:25:43Z</time>
      </trkpt>
      <trkpt lat="52.05384" lon="5.1327778">
        <ele>0.00000</ele>
        <time>2026-05-31T00:25:44Z</time>
      </trkpt>
      <trkpt lat="52.0538793" lon="5.1327294">
        <ele>0.00000</ele>
        <time>2026-05-31T00:25:45Z</time>
      </trkpt>
      <trkpt lat="52.0539278" lon="5.132624">
        <ele>0.00000</ele>
        <time>2026-05-31T00:25:46Z</time>
      </trkpt>
      <trkpt lat="52.0541057" lon="5.1319441">
        <ele>0.00000</ele>
        <time>2026-05-31T00:25:55Z</time>
      </trkpt>
      <trkpt lat="52.0541497" lon="5.1318651">
        <ele>0.00000</ele>
        <time>2026-05-31T00:25:56Z</time>
      </trkpt>
      <trkpt lat="52.0542108" lon="5.1318121">
        <ele>0.00000</ele>
        <time>2026-05-31T00:25:57Z</time>
      </trkpt>
      <trkpt lat="52.0545908" lon="5.1318262">
        <ele>0.00000</ele>
        <time>2026-05-31T00:26:04Z</time>
      </trkpt>
      <trkpt lat="52.0556948" lon="5.1320951">
        <ele>0.00000</ele>
        <time>2026-05-31T00:26:25Z</time>
      </trkpt>
      <trkpt lat="52.0557101" lon="5.1321273">
        <ele>0.00000</ele>
        <time>2026-05-31T00:26:26Z</time>
      </trkpt>
      <trkpt lat="52.0556385" lon="5.132528">
        <ele>0.00000</ele>
        <time>2026-05-31T00:26:31Z</time>
      </trkpt>
      <trkpt lat="52.05564" lon="5.133575">
        <ele>0.00000</ele>
        <time>2026-05-31T00:26:43Z</time>
      </trkpt>
      <trkpt lat="52.0558204" lon="5.1353896">
        <ele>0.00000</ele>
        <time>2026-05-31T00:27:04Z</time>
      </trkpt>
      <trkpt lat="52.057678" lon="5.137215">
        <ele>0.00000</ele>
        <time>2026-05-31T00:27:45Z</time>
      </trkpt>
      <trkpt lat="52.0604792" lon="5.1357931">
        <ele>0.00000</ele>
        <time>2026-05-31T00:28:40Z</time>
      </trkpt>
      <trkpt lat="52.061397" lon="5.135671">
        <ele>0.00000</ele>
        <time>2026-05-31T00:28:57Z</time>
      </trkpt>
      <trkpt lat="52.062544" lon="5.135152">
        <ele>0.00000</ele>
        <time>2026-05-31T00:29:20Z</time>
      </trkpt>
      <trkpt lat="52.0630482" lon="5.1350832">
        <ele>0.00000</ele>
        <time>2026-05-31T00:29:29Z</time>
      </trkpt>
      <trkpt lat="52.0647453" lon="5.1352488">
        <ele>0.00000</ele>
        <time>2026-05-31T00:30:01Z</time>
      </trkpt>
      <trkpt lat="52.066492" lon="5.135195">
        <ele>0.00000</ele>
        <time>2026-05-31T00:30:34Z</time>
      </trkpt>
      <trkpt lat="52.0676906" lon="5.1354963">
        <ele>0.00000</ele>
        <time>2026-05-31T00:30:57Z</time>
      </trkpt>
      <trkpt lat="52.068487" lon="5.135609">
        <ele>0.00000</ele>
        <time>2026-05-31T00:31:12Z</time>
      </trkpt>
      <trkpt lat="52.0691166" lon="5.1354915">
        <ele>0.00000</ele>
        <time>2026-05-31T00:31:24Z</time>
      </trkpt>
      <trkpt lat="52.069526" lon="5.135233">
        <ele>0.00000</ele>
        <time>2026-05-31T00:31:32Z</time>
      </trkpt>
      <trkpt lat="52.0701685" lon="5.1346225">
        <ele>0.00000</ele>
        <time>2026-05-31T00:31:46Z</time>
      </trkpt>
      <trkpt lat="52.0706766" lon="5.1337231">
        <ele>0.00000</ele>
        <time>2026-05-31T00:32:00Z</time>
      </trkpt>
      <trkpt lat="52.0708409" lon="5.133565">
        <ele>0.00000</ele>
        <time>2026-05-31T00:32:03Z</time>
      </trkpt>
      <trkpt lat="52.0709196" lon="5.1335324">
        <ele>0.00000</ele>
        <time>2026-05-31T00:32:05Z</time>
      </trkpt>
      <trkpt lat="52.0710017" lon="5.1335195">
        <ele>0.00000</ele>
        <time>2026-05-31T00:32:07Z</time>
      </trkpt>
      <trkpt lat="52.0711112" lon="5.1335547">
        <ele>0.00000</ele>
        <time>2026-05-31T00:32:09Z</time>
      </trkpt>
      <trkpt lat="52.0712097" lon="5.1336258">
        <ele>0.00000</ele>
        <time>2026-05-31T00:32:11Z</time>
      </trkpt>
      <trkpt lat="52.071405" lon="5.133909">
        <ele>0.00000</ele>
        <time>2026-05-31T00:32:16Z</time>
      </trkpt>
      <trkpt lat="52.071748" lon="5.1346278">
        <ele>0.00000</ele>
        <time>2026-05-31T00:32:26Z</time>
      </trkpt>
      <trkpt lat="52.0721634" lon="5.1357275">
        <ele>0.00000</ele>
        <time>2026-05-31T00:32:41Z</time>
      </trkpt>
      <trkpt lat="52.0722459" lon="5.1358348">
        <ele>0.00000</ele>
        <time>2026-05-31T00:32:43Z</time>
      </trkpt>
      <trkpt lat="52.0723877" lon="5.1358478">
        <ele>0.00000</ele>
        <time>2026-05-31T00:32:46Z</time>
      </trkpt>
      <trkpt lat="52.0725586" lon="5.1357827">
        <ele>0.00000</ele>
        <time>2026-05-31T00:32:49Z</time>
      </trkpt>
      <trkpt lat="52.0727269" lon="5.1356209">
        <ele>0.00000</ele>
        <time>2026-05-31T00:32:53Z</time>
      </trkpt>
      <trkpt lat="52.074777" lon="5.131495">
        <ele>0.00000</ele>
        <time>2026-05-31T00:33:54Z</time>
      </trkpt>
      <trkpt lat="52.075281" lon="5.130321">
        <ele>0.00000</ele>
        <time>2026-05-31T00:34:10Z</time>
      </trkpt>
      <trkpt lat="52.0753787" lon="5.1290291">
        <ele>0.00000</ele>
        <time>2026-05-31T00:34:26Z</time>
      </trkpt>
      <trkpt lat="52.0764049" lon="5.1263862">
        <ele>0.00000</ele>
        <time>2026-05-31T00:35:02Z</time>
      </trkpt>
      <trkpt lat="52.0764338" lon="5.1263646">
        <ele>0.00000</ele>
        <time>2026-05-31T00:35:02Z</time>
      </trkpt>
      <trkpt lat="52.0764664" lon="5.1263829">
        <ele>0.00000</ele>
        <time>2026-05-31T00:35:03Z</time>
      </trkpt>
      <trkpt lat="52.0776847" lon="5.1275768">
        <ele>0.00000</ele>
        <time>2026-05-31T00:35:30Z</time>
      </trkpt>
      <trkpt lat="52.0777315" lon="5.1275981">
        <ele>0.00000</ele>
        <time>2026-05-31T00:35:31Z</time>
      </trkpt>
      <trkpt lat="52.0779669" lon="5.1270975">
        <ele>0.00000</ele>
        <time>2026-05-31T00:35:38Z</time>
      </trkpt>
      <trkpt lat="52.0779967" lon="5.1270774">
        <ele>0.00000</ele>
        <time>2026-05-31T00:35:38Z</time>
      </trkpt>
      <trkpt lat="52.0780302" lon="5.1270939">
        <ele>0.00000</ele>
        <time>2026-05-31T00:35:39Z</time>
      </trkpt>
      <trkpt lat="52.0787927" lon="5.1278573">
        <ele>0.00000</ele>
        <time>2026-05-31T00:35:56Z</time>
      </trkpt>
      <trkpt lat="52.0788714" lon="5.1280094">
        <ele>0.00000</ele>
        <time>2026-05-31T00:35:58Z</time>
      </trkpt>
      <trkpt lat="52.0780804" lon="5.1306786">
        <ele>0.00000</ele>
        <time>2026-05-31T00:36:32Z</time>
      </trkpt>
      <trkpt lat="52.0774973" lon="5.1324314">
        <ele>0.00000</ele>
        <time>2026-05-31T00:36:55Z</time>
      </trkpt>
      <trkpt lat="52.077372" lon="5.1328049">
        <ele>0.00000</ele>
        <time>2026-05-31T00:37:00Z</time>
      </trkpt>
      <trkpt lat="52.0774821" lon="5.1327323">
        <ele>0.00000</ele>
        <time>2026-05-31T00:37:03Z</time>
      </trkpt>
      <trkpt lat="52.0783784" lon="5.1323468">
        <ele>0.00000</ele>
        <time>2026-05-31T00:37:20Z</time>
      </trkpt>
      <trkpt lat="52.0792982" lon="5.1320301">
        <ele>0.00000</ele>
        <time>2026-05-31T00:37:38Z</time>
      </trkpt>
      <trkpt lat="52.0794193" lon="5.1320138">
        <ele>0.00000</ele>
        <time>2026-05-31T00:37:40Z</time>
      </trkpt>
      <trkpt lat="52.0795542" lon="5.1320404">
        <ele>0.00000</ele>
        <time>2026-05-31T00:37:42Z</time>
      </trkpt>
      <trkpt lat="52.080654" lon="5.1317768">
        <ele>0.00000</ele>
        <time>2026-05-31T00:38:03Z</time>
      </trkpt>
      <trkpt lat="52.0824383" lon="5.1312184">
        <ele>0.00000</ele>
        <time>2026-05-31T00:38:38Z</time>
      </trkpt>
      <trkpt lat="52.0825753" lon="5.1311229">
        <ele>0.00000</ele>
        <time>2026-05-31T00:38:40Z</time>
      </trkpt>
      <trkpt lat="52.0827321" lon="5.1309688">
        <ele>0.00000</ele>
        <time>2026-05-31T00:38:44Z</time>
      </trkpt>
      <trkpt lat="52.0839457" lon="5.1305498">
        <ele>0.00000</ele>
        <time>2026-05-31T00:39:07Z</time>
      </trkpt>
      <trkpt lat="52.0840634" lon="5.1304644">
        <ele>0.00000</ele>
        <time>2026-05-31T00:39:10Z</time>
      </trkpt>
      <trkpt lat="52.0851193" lon="5.130262">
        <ele>0.00000</ele>
        <time>2026-05-31T00:39:30Z</time>
      </trkpt>
      <trkpt lat="52.0851626" lon="5.1302114">
        <ele>0.00000</ele>
        <time>2026-05-31T00:39:31Z</time>
      </trkpt>
      <trkpt lat="52.0851862" lon="5.1301547">
        <ele>0.00000</ele>
        <time>2026-05-31T00:39:31Z</time>
      </trkpt>
      <trkpt lat="52.0841081" lon="5.1282334">
        <ele>0.00000</ele>
        <time>2026-05-31T00:40:01Z</time>
      </trkpt>
      <trkpt lat="52.0839037" lon="5.1279813">
        <ele>0.00000</ele>
        <time>2026-05-31T00:40:06Z</time>
      </trkpt>
      <trkpt lat="52.0829708" lon="5.1270854">
        <ele>0.00000</ele>
        <time>2026-05-31T00:40:27Z</time>
      </trkpt>
      <trkpt lat="52.0826271" lon="5.1268208">
        <ele>0.00000</ele>
        <time>2026-05-31T00:40:34Z</time>
      </trkpt>
      <trkpt lat="52.0824796" lon="5.1267368">
        <ele>0.00000</ele>
        <time>2026-05-31T00:40:37Z</time>
      </trkpt>
      <trkpt lat="52.0812506" lon="5.1259617">
        <ele>0.00000</ele>
        <time>2026-05-31T00:41:01Z</time>
      </trkpt>
      <trkpt lat="52.0812827" lon="5.1258751">
        <ele>0.00000</ele>
        <time>2026-05-31T00:41:03Z</time>
      </trkpt>
      <trkpt lat="52.0824928" lon="5.1266617">
        <ele>0.00000</ele>
        <time>2026-05-31T00:41:27Z</time>
      </trkpt>
      <trkpt lat="52.0827311" lon="5.1268165">
        <ele>0.00000</ele>
        <time>2026-05-31T00:41:32Z</time>
      </trkpt>
      <trkpt lat="52.0835688" lon="5.1275704">
        <ele>0.00000</ele>
        <time>2026-05-31T00:41:50Z</time>
      </trkpt>
      <trkpt lat="52.0842568" lon="5.128363">
        <ele>0.00000</ele>
        <time>2026-05-31T00:42:06Z</time>
      </trkpt>
      <trkpt lat="52.0842983" lon="5.1283625">
        <ele>0.00000</ele>
        <time>2026-05-31T00:42:06Z</time>
      </trkpt>
      <trkpt lat="52.0844284" lon="5.1281653">
        <ele>0.00000</ele>
        <time>2026-05-31T00:42:10Z</time>
      </trkpt>
      <trkpt lat="52.0846696" lon="5.1279287">
        <ele>0.00000</ele>
        <time>2026-05-31T00:42:15Z</time>
      </trkpt>
      <trkpt lat="52.085666" lon="5.127363">
        <ele>0.00000</ele>
        <time>2026-05-31T00:42:35Z</time>
      </trkpt>
      <trkpt lat="52.0866427" lon="5.1265185">
        <ele>0.00000</ele>
        <time>2026-05-31T00:42:56Z</time>
      </trkpt>
      <trkpt lat="52.0874456" lon="5.1259382">
        <ele>0.00000</ele>
        <time>2026-05-31T00:43:12Z</time>
      </trkpt>
      <trkpt lat="52.0874141" lon="5.1256564">
        <ele>0.00000</ele>
        <time>2026-05-31T00:43:16Z</time>
      </trkpt>
      <trkpt lat="52.0875148" lon="5.125513">
        <ele>0.00000</ele>
        <time>2026-05-31T00:43:18Z</time>
      </trkpt>
      <trkpt lat="52.0880069" lon="5.1250067">
        <ele>0.00000</ele>
        <time>2026-05-31T00:43:29Z</time>
      </trkpt>
      <trkpt lat="52.0881131" lon="5.124929">
        <ele>0.00000</ele>
        <time>2026-05-31T00:43:31Z</time>
      </trkpt>
      <trkpt lat="52.0888846" lon="5.1241037">
        <ele>0.00000</ele>
        <time>2026-05-31T00:43:49Z</time>
      </trkpt>
      <trkpt lat="52.0886356" lon="5.1226896">
        <ele>0.00000</ele>
        <time>2026-05-31T00:44:06Z</time>
      </trkpt>
      <trkpt lat="52.0906242" lon="5.1216181">
        <ele>0.00000</ele>
        <time>2026-05-31T00:44:45Z</time>
      </trkpt>
      <trkpt lat="52.0906692" lon="5.1215421">
        <ele>0.00000</ele>
        <time>2026-05-31T00:44:46Z</time>
      </trkpt>
      <trkpt lat="52.0905998" lon="5.1211456">
        <ele>0.00000</ele>
        <time>2026-05-31T00:44:51Z</time>
      </trkpt>
      <trkpt lat="52.0906052" lon="5.1211113">
        <ele>0.00000</ele>
        <time>2026-05-31T00:44:51Z</time>
      </trkpt>
      <trkpt lat="52.0907338" lon="5.1210849">
        <ele>0.00000</ele>
        <time>2026-05-31T00:44:54Z</time>
      </trkpt>
      <trkpt lat="52.0910065" lon="5.1217896">
        <ele>0.00000</ele>
        <time>2026-05-31T00:45:03Z</time>
      </trkpt>
      <trkpt lat="52.0913894" lon="5.123338">
        <ele>0.00000</ele>
        <time>2026-05-31T00:45:23Z</time>
      </trkpt>
      <trkpt lat="52.091369" lon="5.1234115">
        <ele>0.00000</ele>
        <time>2026-05-31T00:45:24Z</time>
      </trkpt>
      <trkpt lat="52.0906275" lon="5.1238529">
        <ele>0.00000</ele>
        <time>2026-05-31T00:45:38Z</time>
      </trkpt>
      <trkpt lat="52.0903747" lon="5.1239709">
        <ele>0.00000</ele>
        <time>2026-05-31T00:45:43Z</time>
      </trkpt>
      <trkpt lat="52.0900212" lon="5.1239975">
        <ele>0.00000</ele>
        <time>2026-05-31T00:45:50Z</time>
      </trkpt>
      <trkpt lat="52.089676" lon="5.1240957">
        <ele>0.00000</ele>
        <time>2026-05-31T00:45:57Z</time>
      </trkpt>
      <trkpt lat="52.0893724" lon="5.1242283">
        <ele>0.00000</ele>
        <time>2026-05-31T00:46:02Z</time>
      </trkpt>
      <trkpt lat="52.0890191" lon="5.1244667">
        <ele>0.00000</ele>
        <time>2026-05-31T00:46:10Z</time>
      </trkpt>
      <trkpt lat="52.0890093" lon="5.1245398">
        <ele>0.00000</ele>
        <time>2026-05-31T00:46:11Z</time>
      </trkpt>
      <trkpt lat="52.0899596" lon="5.1272136">
        <ele>0.00000</ele>
        <time>2026-05-31T00:46:46Z</time>
      </trkpt>
      <trkpt lat="52.0899571" lon="5.127283">
        <ele>0.00000</ele>
        <time>2026-05-31T00:46:47Z</time>
      </trkpt>
      <trkpt lat="52.0899271" lon="5.1273387">
        <ele>0.00000</ele>
        <time>2026-05-31T00:46:48Z</time>
      </trkpt>
      <trkpt lat="52.0895059" lon="5.1275093">
        <ele>0.00000</ele>
        <time>2026-05-31T00:46:56Z</time>
      </trkpt>
      <trkpt lat="52.0892354" lon="5.1276563">
        <ele>0.00000</ele>
        <time>2026-05-31T00:47:01Z</time>
      </trkpt>
      <trkpt lat="52.089034" lon="5.127932">
        <ele>0.00000</ele>
        <time>2026-05-31T00:47:06Z</time>
      </trkpt>
      <trkpt lat="52.0884976" lon="5.1292182">
        <ele>0.00000</ele>
        <time>2026-05-31T00:47:24Z</time>
      </trkpt>
      <trkpt lat="52.088462" lon="5.1292178">
        <ele>0.00000</ele>
        <time>2026-05-31T00:47:25Z</time>
      </trkpt>
      <trkpt lat="52.0879787" lon="5.1289742">
        <ele>0.00000</ele>
        <time>2026-05-31T00:47:34Z</time>
      </trkpt>
      <trkpt lat="52.087808" lon="5.128979">
        <ele>0.00000</ele>
        <time>2026-05-31T00:47:38Z</time>
      </trkpt>
      <trkpt lat="52.0865917" lon="5.1293995">
        <ele>0.00000</ele>
        <time>2026-05-31T00:48:01Z</time>
      </trkpt>
      <trkpt lat="52.0863053" lon="5.1295423">
        <ele>0.00000</ele>
        <time>2026-05-31T00:48:07Z</time>
      </trkpt>
      <trkpt lat="52.0855498" lon="5.1301881">
        <ele>0.00000</ele>
        <time>2026-05-31T00:48:23Z</time>
      </trkpt>
      <trkpt lat="52.0855194" lon="5.1305927">
        <ele>0.00000</ele>
        <time>2026-05-31T00:48:27Z</time>
      </trkpt>
      <trkpt lat="52.0858614" lon="5.1308005">
        <ele>0.00000</ele>
        <time>2026-05-31T00:48:34Z</time>
      </trkpt>
      <trkpt lat="52.086004" lon="5.1309532">
        <ele>0.00000</ele>
        <time>2026-05-31T00:48:37Z</time>
      </trkpt>
      <trkpt lat="52.0861298" lon="5.131723">
        <ele>0.00000</ele>
        <time>2026-05-31T00:48:47Z</time>
      </trkpt>
      <trkpt lat="52.0858069" lon="5.1331568">
        <ele>0.00000</ele>
        <time>2026-05-31T00:49:04Z</time>
      </trkpt>
      <trkpt lat="52.085874" lon="5.1352048">
        <ele>0.00000</ele>
        <time>2026-05-31T00:49:28Z</time>
      </trkpt>
      <trkpt lat="52.0858411" lon="5.1353964">
        <ele>0.00000</ele>
        <time>2026-05-31T00:49:30Z</time>
      </trkpt>
      <trkpt lat="52.0845734" lon="5.1383195">
        <ele>0.00000</ele>
        <time>2026-05-31T00:50:12Z</time>
      </trkpt>
      <trkpt lat="52.084557" lon="5.138434">
        <ele>0.00000</ele>
        <time>2026-05-31T00:50:13Z</time>
      </trkpt>
      <trkpt lat="52.084618" lon="5.1385508">
        <ele>0.00000</ele>
        <time>2026-05-31T00:50:15Z</time>
      </trkpt>
      <trkpt lat="52.0850217" lon="5.1388294">
        <ele>0.00000</ele>
        <time>2026-05-31T00:50:23Z</time>
      </trkpt>
      <trkpt lat="52.0851807" lon="5.138832">
        <ele>0.00000</ele>
        <time>2026-05-31T00:50:26Z</time>
      </trkpt>
      <trkpt lat="52.0853113" lon="5.1387873">
        <ele>0.00000</ele>
        <time>2026-05-31T00:50:28Z</time>
      </trkpt>
      <trkpt lat="52.0855179" lon="5.1388462">
        <ele>0.00000</ele>
        <time>2026-05-31T00:50:32Z</time>
      </trkpt>
      <trkpt lat="52.0857565" lon="5.1390221">
        <ele>0.00000</ele>
        <time>2026-05-31T00:50:37Z</time>
      </trkpt>
      <trkpt lat="52.085836" lon="5.1390052">
        <ele>0.00000</ele>
        <time>2026-05-31T00:50:39Z</time>
      </trkpt>
      <trkpt lat="52.0861334" lon="5.1388751">
        <ele>0.00000</ele>
        <time>2026-05-31T00:50:45Z</time>
      </trkpt>
      <trkpt lat="52.0862581" lon="5.1388472">
        <ele>0.00000</ele>
        <time>2026-05-31T00:50:47Z</time>
      </trkpt>
      <trkpt lat="52.0868913" lon="5.1389578">
        <ele>0.00000</ele>
        <time>2026-05-31T00:50:59Z</time>
      </trkpt>
      <trkpt lat="52.088022" lon="5.1386506">
        <ele>0.00000</ele>
        <time>2026-05-31T00:51:20Z</time>
      </trkpt>
      <trkpt lat="52.0882354" lon="5.1386493">
        <ele>0.00000</ele>
        <time>2026-05-31T00:51:24Z</time>
      </trkpt>
      <trkpt lat="52.0884451" lon="5.1389475">
        <ele>0.00000</ele>
        <time>2026-05-31T00:51:30Z</time>
      </trkpt>
      <trkpt lat="52.0885906" lon="5.1392893">
        <ele>0.00000</ele>
        <time>2026-05-31T00:51:35Z</time>
      </trkpt>
      <trkpt lat="52.0888696" lon="5.1396488">
        <ele>0.00000</ele>
        <time>2026-05-31T00:51:41Z</time>
      </trkpt>
      <trkpt lat="52.0892379" lon="5.1399677">
        <ele>0.00000</ele>
        <time>2026-05-31T00:51:49Z</time>
      </trkpt>
      <trkpt lat="52.0898791" lon="5.140189">
        <ele>0.00000</ele>
        <time>2026-05-31T00:52:01Z</time>
      </trkpt>
      <trkpt lat="52.0902835" lon="5.1403962">
        <ele>0.00000</ele>
        <time>2026-05-31T00:52:09Z</time>
      </trkpt>
      <trkpt lat="52.0907037" lon="5.1407142">
        <ele>0.00000</ele>
        <time>2026-05-31T00:52:18Z</time>
      </trkpt>
      <trkpt lat="52.0907811" lon="5.1407446">
        <ele>0.00000</ele>
        <time>2026-05-31T00:52:20Z</time>
      </trkpt>
      <trkpt lat="52.0908931" lon="5.1407196">
        <ele>0.00000</ele>
        <time>2026-05-31T00:52:22Z</time>
      </trkpt>
      <trkpt lat="52.0914931" lon="5.140805">
        <ele>0.00000</ele>
        <time>2026-05-31T00:52:33Z</time>
      </trkpt>
      <trkpt lat="52.0919401" lon="5.1406496">
        <ele>0.00000</ele>
        <time>2026-05-31T00:52:42Z</time>
      </trkpt>
      <trkpt lat="52.0921377" lon="5.1404825">
        <ele>0.00000</ele>
        <time>2026-05-31T00:52:46Z</time>
      </trkpt>
      <trkpt lat="52.0923554" lon="5.1405934">
        <ele>0.00000</ele>
        <time>2026-05-31T00:52:50Z</time>
      </trkpt>
      <trkpt lat="52.0924526" lon="5.1407356">
        <ele>0.00000</ele>
        <time>2026-05-31T00:52:53Z</time>
      </trkpt>
      <trkpt lat="52.0925" lon="5.1409196">
        <ele>0.00000</ele>
        <time>2026-05-31T00:52:55Z</time>
      </trkpt>
      <trkpt lat="52.092497" lon="5.1410953">
        <ele>0.00000</ele>
        <time>2026-05-31T00:52:57Z</time>
      </trkpt>
      <trkpt lat="52.0923949" lon="5.1412437">
        <ele>0.00000</ele>
        <time>2026-05-31T00:52:59Z</time>
      </trkpt>
      <trkpt lat="52.0922707" lon="5.1413669">
        <ele>0.00000</ele>
        <time>2026-05-31T00:53:02Z</time>
      </trkpt>
      <trkpt lat="52.0921747" lon="5.1413599">
        <ele>0.00000</ele>
        <time>2026-05-31T00:53:04Z</time>
      </trkpt>
      <trkpt lat="52.0917949" lon="5.141254">
        <ele>0.00000</ele>
        <time>2026-05-31T00:53:11Z</time>
      </trkpt>
      <trkpt lat="52.0915488" lon="5.1412788">
        <ele>0.00000</ele>
        <time>2026-05-31T00:53:16Z</time>
      </trkpt>
      <trkpt lat="52.0914039" lon="5.1412188">
        <ele>0.00000</ele>
        <time>2026-05-31T00:53:19Z</time>
      </trkpt>
      <trkpt lat="52.0909955" lon="5.1411316">
        <ele>0.00000</ele>
        <time>2026-05-31T00:53:26Z</time>
      </trkpt>
      <trkpt lat="52.090879" lon="5.1410408">
        <ele>0.00000</ele>
        <time>2026-05-31T00:53:29Z</time>
      </trkpt>
      <trkpt lat="52.0908146" lon="5.1409501">
        <ele>0.00000</ele>
        <time>2026-05-31T00:53:30Z</time>
      </trkpt>
      <trkpt lat="52.0906042" lon="5.1407419">
        <ele>0.00000</ele>
        <time>2026-05-31T00:53:35Z</time>
      </trkpt>
      <trkpt lat="52.0905535" lon="5.1407437">
        <ele>0.00000</ele>
        <time>2026-05-31T00:53:36Z</time>
      </trkpt>
      <trkpt lat="52.0905057" lon="5.1408044">
        <ele>0.00000</ele>
        <time>2026-05-31T00:53:37Z</time>
      </trkpt>
      <trkpt lat="52.0897819" lon="5.1414193">
        <ele>0.00000</ele>
        <time>2026-05-31T00:53:52Z</time>
      </trkpt>
      <trkpt lat="52.089574" lon="5.141533">
        <ele>0.00000</ele>
        <time>2026-05-31T00:53:57Z</time>
      </trkpt>
      <trkpt lat="52.0893959" lon="5.1415979">
        <ele>0.00000</ele>
        <time>2026-05-31T00:54:00Z</time>
      </trkpt>
      <trkpt lat="52.0891594" lon="5.1416147">
        <ele>0.00000</ele>
        <time>2026-05-31T00:54:04Z</time>
      </trkpt>
      <trkpt lat="52.0888936" lon="5.1415784">
        <ele>0.00000</ele>
        <time>2026-05-31T00:54:09Z</time>
      </trkpt>
      <trkpt lat="52.0885614" lon="5.1414673">
        <ele>0.00000</ele>
        <time>2026-05-31T00:54:16Z</time>
      </trkpt>
      <trkpt lat="52.0882832" lon="5.1414507">
        <ele>0.00000</ele>
        <time>2026-05-31T00:54:21Z</time>
      </trkpt>
      <trkpt lat="52.087979" lon="5.1414773">
        <ele>0.00000</ele>
        <time>2026-05-31T00:54:27Z</time>
      </trkpt>
      <trkpt lat="52.0875251" lon="5.1416489">
        <ele>0.00000</ele>
        <time>2026-05-31T00:54:36Z</time>
      </trkpt>
      <trkpt lat="52.0870269" lon="5.1417631">
        <ele>0.00000</ele>
        <time>2026-05-31T00:54:45Z</time>
      </trkpt>
      <trkpt lat="52.0869907" lon="5.1418167">
        <ele>0.00000</ele>
        <time>2026-05-31T00:54:46Z</time>
      </trkpt>
      <trkpt lat="52.0868046" lon="5.1423561">
        <ele>0.00000</ele>
        <time>2026-05-31T00:54:53Z</time>
      </trkpt>
      <trkpt lat="52.086174" lon="5.144551">
        <ele>0.00000</ele>
        <time>2026-05-31T00:55:21Z</time>
      </trkpt>
      <trkpt lat="52.08407" lon="5.150807">
        <ele>0.00000</ele>
        <time>2026-05-31T00:56:43Z</time>
      </trkpt>
      <trkpt lat="52.0840043" lon="5.1519114">
        <ele>0.00000</ele>
        <time>2026-05-31T00:56:56Z</time>
      </trkpt>
      <trkpt lat="52.0840191" lon="5.1520784">
        <ele>0.00000</ele>
        <time>2026-05-31T00:56:58Z</time>
      </trkpt>
      <trkpt lat="52.0845049" lon="5.1531518">
        <ele>0.00000</ele>
        <time>2026-05-31T00:57:14Z</time>
      </trkpt>
      <trkpt lat="52.0845152" lon="5.1532189">
        <ele>0.00000</ele>
        <time>2026-05-31T00:57:14Z</time>
      </trkpt>
      <trkpt lat="52.0845043" lon="5.1532996">
        <ele>0.00000</ele>
        <time>2026-05-31T00:57:15Z</time>
      </trkpt>
      <trkpt lat="52.0828727" lon="5.1559443">
        <ele>0.00000</ele>
        <time>2026-05-31T00:57:59Z</time>
      </trkpt>
      <trkpt lat="52.0828872" lon="5.1560653">
        <ele>0.00000</ele>
        <time>2026-05-31T00:58:00Z</time>
      </trkpt>
      <trkpt lat="52.0841164" lon="5.1583001">
        <ele>0.00000</ele>
        <time>2026-05-31T00:58:35Z</time>
      </trkpt>
      <trkpt lat="52.0842287" lon="5.1586183">
        <ele>0.00000</ele>
        <time>2026-05-31T00:58:39Z</time>
      </trkpt>
      <trkpt lat="52.0843211" lon="5.1590473">
        <ele>0.00000</ele>
        <time>2026-05-31T00:58:44Z</time>
      </trkpt>
      <trkpt lat="52.0844115" lon="5.1601143">
        <ele>0.00000</ele>
        <time>2026-05-31T00:58:57Z</time>
      </trkpt>
      <trkpt lat="52.0842676" lon="5.1616565">
        <ele>0.00000</ele>
        <time>2026-05-31T00:59:15Z</time>
      </trkpt>
      <trkpt lat="52.0842696" lon="5.1634927">
        <ele>0.00000</ele>
        <time>2026-05-31T00:59:36Z</time>
      </trkpt>
      <trkpt lat="52.0843507" lon="5.1635562">
        <ele>0.00000</ele>
        <time>2026-05-31T00:59:38Z</time>
      </trkpt>
      <trkpt lat="52.0853915" lon="5.1635778">
        <ele>0.00000</ele>
        <time>2026-05-31T00:59:57Z</time>
      </trkpt>
    </trkseg>
  </trk>
</gpx>

